RJTH(METAR)
07/17 15:00
RJTH 170600Z 22005KT 9999 FEW040 28/22 Q1013 RMK A2994=
戻る
トップページへ戻る
IMOC Co,.Ltd.